Time;durP1;ratioP1;P1;durP2;ratioP2;P2;SDS_P1;SDS_P2;PMS_P1;PMS_P2;Temp;Humidity;BMP_temperature;BMP_pressure;BME280_temperature;BME280_humidity;BME280_pressure;Samples;Min_cycle;Max_cycle;Signal;HPM_P1;HPM_P2
2023/12/06 00:00:40;;;;;;;;;;;;;;;6.11;100.00;94764.19;5073447;28;1034;-65
2023/12/06 00:03:06;;;;;;;;;;;;;;;6.15;100.00;94757.63;5074561;28;979;-65
2023/12/06 00:05:32;;;;;;;;;;;;;;;6.27;100.00;94762.75;5073175;28;981;-65
2023/12/06 00:07:58;;;;;;;;;;;;;;;6.43;100.00;94757.66;5074547;28;1077;-65
2023/12/06 00:10:24;;;;;;;;;;;;;;;6.47;99.49;94753.75;5074297;28;1906;-65
2023/12/06 00:12:50;;;;;;;;;;;;;;;6.44;99.74;94754.03;5074498;28;1001;-65
2023/12/06 00:15:16;;;;;;;;;;;;;;;6.32;100.00;94749.88;5074366;28;1045;-65
2023/12/06 00:17:42;;;;;;;;;;;;;;;6.33;100.00;94749.72;5074277;28;977;-65
2023/12/06 00:20:08;;;;;;;;;;;;;;;6.32;100.00;94756.03;5074642;28;958;-65
2023/12/06 00:22:34;;;;;;;;;;;;;;;6.35;100.00;94750.41;5073702;28;1036;-65
2023/12/06 00:25:01;;;;;;;;;;;;;;;6.40;100.00;94750.00;5073927;28;1099;-64
2023/12/06 00:27:27;;;;;;;;;;;;;;;6.41;100.00;94738.38;5074073;28;1005;-65
2023/12/06 00:29:52;;;;;;;;;;;;;;;6.40;100.00;94740.22;5074120;28;1906;-66
2023/12/06 00:32:18;;;;;;;;;;;;;;;6.40;100.00;94742.03;5074017;28;1048;-65
2023/12/06 00:34:44;;;;;;;;;;;;;;;6.45;100.00;94740.63;5073937;28;981;-65
2023/12/06 00:37:10;;;;;;;;;;;;;;;6.53;100.00;94741.72;5073717;28;1052;-65
2023/12/06 00:39:36;;;;;;;;;;;;;;;6.54;99.82;94738.06;5073526;28;1191;-65
2023/12/06 00:42:02;;;;;;;;;;;;;;;6.51;100.00;94743.69;5073675;28;1045;-65
2023/12/06 00:44:28;;;;;;;;;;;;;;;6.42;100.00;94737.41;5073562;28;961;-65
2023/12/06 00:46:54;;;;;;;;;;;;;;;6.33;100.00;94740.94;5073641;28;974;-65
2023/12/06 00:49:20;;;;;;;;;;;;;;;6.24;100.00;94726.69;5073629;28;985;-65
2023/12/06 00:51:46;;;;;;;;;;;;;;;6.19;100.00;94726.31;5073562;28;1218;-65
2023/12/06 00:54:12;;;;;;;;;;;;;;;6.19;100.00;94726.31;5072049;28;1339;-65
2023/12/06 00:56:38;;;;;;;;;;;;;;;6.16;100.00;94715.97;5073412;28;995;-65
2023/12/06 00:59:04;;;;;;;;;;;;;;;6.17;100.00;94717.66;5073625;28;1048;-65
2023/12/06 01:01:30;;;;;;;;;;;;;;;6.21;100.00;94719.03;5073403;28;990;-65
2023/12/06 01:04:15;;;;;;;;;;;;;;;6.22;100.00;94712.72;5073506;28;1704;-65
2023/12/06 01:06:41;;;;;;;;;;;;;;;6.19;100.00;94702.44;5073530;28;991;-65
2023/12/06 01:09:08;;;;;;;;;;;;;;;6.15;100.00;94709.00;5073139;28;971;-64
2023/12/06 01:11:34;;;;;;;;;;;;;;;6.15;100.00;94711.66;5073298;28;1977;-65
2023/12/06 01:14:00;;;;;;;;;;;;;;;6.14;100.00;94699.38;5073485;28;958;-64
2023/12/06 01:16:26;;;;;;;;;;;;;;;6.16;100.00;94692.91;5073311;28;1056;-65
2023/12/06 01:18:52;;;;;;;;;;;;;;;6.22;100.00;94700.31;5073347;28;992;-65
2023/12/06 01:21:18;;;;;;;;;;;;;;;6.28;100.00;94700.69;5073365;28;1026;-65
2023/12/06 01:23:43;;;;;;;;;;;;;;;6.33;100.00;94699.28;5073290;28;966;-64
2023/12/06 01:26:09;;;;;;;;;;;;;;;6.46;100.00;94688.31;5073079;28;1087;-64
2023/12/06 01:28:35;;;;;;;;;;;;;;;6.52;100.00;94689.56;5073063;28;1033;-65
2023/12/06 01:31:01;;;;;;;;;;;;;;;6.43;100.00;94685.94;5073123;28;1917;-65
2023/12/06 01:33:27;;;;;;;;;;;;;;;6.36;100.00;94688.38;5072964;28;1121;-65
2023/12/06 01:35:53;;;;;;;;;;;;;;;6.37;100.00;94683.91;5073017;28;1040;-64
2023/12/06 01:38:19;;;;;;;;;;;;;;;6.36;100.00;94683.06;5072685;28;1089;-65
2023/12/06 01:40:45;;;;;;;;;;;;;;;6.34;100.00;94685.03;5073201;28;973;-64
2023/12/06 01:43:11;;;;;;;;;;;;;;;6.35;100.00;94678.72;5054982;28;1059;-65
2023/12/06 01:45:37;;;;;;;;;;;;;;;6.45;100.00;94676.06;5073216;28;1060;-64
2023/12/06 01:48:03;;;;;;;;;;;;;;;6.48;100.00;94674.91;5072958;28;1048;-64
2023/12/06 01:50:30;;;;;;;;;;;;;;;6.45;100.00;94681.38;5072961;28;1999;-65
2023/12/06 01:52:57;;;;;;;;;;;;;;;6.49;100.00;94682.72;5072772;28;1004;-65
2023/12/06 01:55:24;;;;;;;;;;;;;;;6.42;100.00;94671.84;5072828;28;1245;-64
2023/12/06 01:57:50;;;;;;;;;;;;;;;6.39;100.00;94673.97;5072880;28;966;-65
2023/12/06 02:00:16;;;;;;;;;;;;;;;6.35;100.00;94669.94;5072808;28;1105;-64
2023/12/06 02:02:42;;;;;;;;;;;;;;;6.33;100.00;94672.72;5055244;28;1053;-64
2023/12/06 02:05:09;;;;;;;;;;;;;;;6.40;100.00;94667.69;5072962;28;1050;-64
2023/12/06 02:07:35;;;;;;;;;;;;;;;6.44;100.00;94664.56;5072509;28;966;-63
2023/12/06 02:10:02;;;;;;;;;;;;;;;6.41;100.00;94662.22;5072489;28;1990;-64
2023/12/06 02:12:28;;;;;;;;;;;;;;;6.43;100.00;94656.75;5072682;28;1033;-65
2023/12/06 02:14:57;;;;;;;;;;;;;;;6.43;100.00;94660.25;5072783;28;1065;-64
2023/12/06 02:17:23;;;;;;;;;;;;;;;6.42;100.00;94663.88;5072512;28;1000;-65
2023/12/06 02:19:50;;;;;;;;;;;;;;;6.43;100.00;94657.59;5074915;28;1061;-65
2023/12/06 02:22:16;;;;;;;;;;;;;;;6.44;100.00;94656.59;5076241;28;958;-64
2023/12/06 02:24:42;;;;;;;;;;;;;;;6.48;100.00;94657.16;5076580;28;974;-64
2023/12/06 02:27:08;;;;;;;;;;;;;;;6.43;100.00;94662.06;5076573;28;1041;-64
2023/12/06 02:29:36;;;;;;;;;;;;;;;6.41;100.00;94662.22;5076051;28;1993;-64
2023/12/06 02:32:02;;;;;;;;;;;;;;;6.30;100.00;94657.09;5076507;28;977;-65
2023/12/06 02:34:28;;;;;;;;;;;;;;;6.24;100.00;94652.38;5074802;28;1096;-65
2023/12/06 02:36:57;;;;;;;;;;;;;;;6.23;100.00;94646.22;5076292;28;1033;-65
2023/12/06 02:39:26;;;;;;;;;;;;;;;6.34;100.00;94645.22;5075903;28;1106;-65
2023/12/06 02:41:53;;;;;;;;;;;;;;;6.43;100.00;94646.97;5076201;28;1045;-65
2023/12/06 02:44:19;;;;;;;;;;;;;;;6.47;100.00;94642.22;5076179;28;977;-65
2023/12/06 02:46:45;;;;;;;;;;;;;;;6.50;100.00;94641.06;5075853;28;1025;-64
2023/12/06 02:49:11;;;;;;;;;;;;;;;6.44;100.00;94635.34;5075754;28;1057;-65
2023/12/06 02:51:37;;;;;;;;;;;;;;;6.48;100.00;94635.06;5075943;28;1915;-65
2023/12/06 02:54:03;;;;;;;;;;;;;;;6.45;100.00;94634.38;5075961;28;1300;-65
2023/12/06 02:56:29;;;;;;;;;;;;;;;6.48;100.00;94632.41;5075795;28;1044;-65
2023/12/06 02:58:55;;;;;;;;;;;;;;;6.43;100.00;94624.88;5075614;28;1080;-65
2023/12/06 03:01:21;;;;;;;;;;;;;;;6.40;100.00;94618.06;5075644;28;978;-65
2023/12/06 03:03:47;;;;;;;;;;;;;;;6.36;100.00;94621.16;5075624;28;1025;-65
2023/12/06 03:06:13;;;;;;;;;;;;;;;6.39;100.00;94624.38;5075411;28;1024;-65
2023/12/06 03:08:39;;;;;;;;;;;;;;;6.45;100.00;94623.75;5075558;28;1016;-65
2023/12/06 03:11:05;;;;;;;;;;;;;;;6.55;100.00;94622.88;5074116;28;1906;-65
2023/12/06 03:13:30;;;;;;;;;;;;;;;6.53;100.00;94622.19;5075652;28;1061;-65
2023/12/06 03:15:56;;;;;;;;;;;;;;;6.49;100.00;94621.66;5075701;28;977;-65
2023/12/06 03:18:22;;;;;;;;;;;;;;;6.51;100.00;94618.84;5075320;28;974;-65
2023/12/06 03:20:48;;;;;;;;;;;;;;;6.51;100.00;94618.84;5075272;28;1042;-66
2023/12/06 03:23:14;;;;;;;;;;;;;;;6.53;100.00;94619.53;5075363;28;1049;-65
2023/12/06 03:25:40;;;;;;;;;;;;;;;6.45;100.00;94617.63;5075559;28;1035;-65
2023/12/06 03:28:06;;;;;;;;;;;;;;;6.39;100.00;94613.75;5074139;28;1036;-65
2023/12/06 03:30:32;;;;;;;;;;;;;;;6.33;100.00;94608.19;5074977;28;1898;-66
2023/12/06 03:32:58;;;;;;;;;;;;;;;6.30;100.00;94617.28;5075146;28;1000;-65
2023/12/06 03:35:24;;;;;;;;;;;;;;;6.31;100.00;94616.28;5074842;28;1000;-66
2023/12/06 03:37:50;;;;;;;;;;;;;;;6.29;100.00;94615.59;5073868;28;1319;-67
2023/12/06 03:40:16;;;;;;;;;;;;;;;6.33;100.00;94619.63;5057283;28;1054;-65
2023/12/06 03:42:42;;;;;;;;;;;;;;;6.38;100.00;94622.69;5074998;28;962;-65
2023/12/06 03:45:09;;;;;;;;;;;;;;;6.42;100.00;94628.53;5074733;28;1119;-66
2023/12/06 03:47:35;;;;;;;;;;;;;;;6.45;100.00;94628.25;5056830;28;997;-67
2023/12/06 03:50:01;;;;;;;;;;;;;;;6.40;100.00;94626.03;5074496;28;1987;-66
2023/12/06 03:52:29;;;;;;;;;;;;;;;6.37;100.00;94628.97;5074816;28;1083;-64
2023/12/06 03:54:56;;;;;;;;;;;;;;;6.41;100.00;94624.19;5073266;28;1356;-66
2023/12/06 03:57:22;;;;;;;;;;;;;;;6.42;100.00;94629.38;5074414;28;1052;-64
2023/12/06 03:59:47;;;;;;;;;;;;;;;6.41;100.00;94627.72;5074485;28;910;-63
2023/12/06 04:02:14;;;;;;;;;;;;;;;6.35;100.00;94630.94;5074495;28;1064;-63
2023/12/06 04:04:40;;;;;;;;;;;;;;;6.24;100.00;94621.38;5074311;28;1024;-63
2023/12/06 04:07:06;;;;;;;;;;;;;;;6.18;100.00;94629.06;5074576;28;966;-65
2023/12/06 04:09:31;;;;;;;;;;;;;;;6.10;100.00;94623.66;5074128;28;1906;-65
2023/12/06 04:11:57;;;;;;;;;;;;;;;6.16;100.00;94625.72;5074300;28;1032;-65
2023/12/06 04:14:23;;;;;;;;;;;;;;;6.20;100.00;94620.00;5074167;28;989;-65
2023/12/06 04:16:49;;;;;;;;;;;;;;;6.16;100.00;94629.22;5074457;28;986;-65
2023/12/06 04:19:16;;;;;;;;;;;;;;;6.15;100.00;94619.59;5074020;28;1049;-65
2023/12/06 04:21:42;;;;;;;;;;;;;;;6.12;100.00;94624.34;5074346;28;969;-65
2023/12/06 04:24:08;;;;;;;;;;;;;;;6.10;100.00;94624.50;5074271;28;1004;-61
2023/12/06 04:26:34;;;;;;;;;;;;;;;6.08;100.00;94615.84;5072985;28;1046;-59
2023/12/06 04:29:00;;;;;;;;;;;;;;;6.11;100.00;94609.41;5074051;28;1064;-65
2023/12/06 04:31:26;;;;;;;;;;;;;;;6.23;100.00;94611.72;5073810;28;2110;-65
2023/12/06 04:33:52;;;;;;;;;;;;;;;6.28;100.00;94616.59;5073829;28;1041;-65
2023/12/06 04:36:18;;;;;;;;;;;;;;;6.27;100.00;94616.75;5073627;28;1032;-66
2023/12/06 04:38:45;;;;;;;;;;;;;;;6.20;100.00;94621.78;5073830;28;1235;-65
2023/12/06 04:41:11;;;;;;;;;;;;;;;6.23;100.00;94624.16;5055398;28;1021;-64
2023/12/06 04:43:37;;;;;;;;;;;;;;;6.16;100.00;94629.22;5073828;28;966;-62
2023/12/06 04:46:03;;;;;;;;;;;;;;;6.07;100.00;94624.81;5073703;28;1073;-65
2023/12/06 04:48:29;;;;;;;;;;;;;;;6.09;100.00;94624.63;5073442;28;974;-63
2023/12/06 04:50:55;;;;;;;;;;;;;;;6.25;100.00;94624.84;5073705;28;1906;-63
2023/12/06 04:53:21;;;;;;;;;;;;;;;6.27;100.00;94624.72;5073789;28;1016;-62
2023/12/06 04:55:46;;;;;;;;;;;;;;;6.26;100.00;94623.88;5073556;28;1269;-62
2023/12/06 04:58:13;;;;;;;;;;;;;;;6.21;100.00;94631.44;5073481;28;989;-62
2023/12/06 05:00:39;;;;;;;;;;;;;;;6.16;100.00;94628.38;5072307;28;1007;-63
2023/12/06 05:03:05;;;;;;;;;;;;;;;6.19;100.00;94622.78;5073395;28;1065;-64
2023/12/06 05:05:31;;;;;;;;;;;;;;;6.24;100.00;94623.16;5073565;28;1069;-61
2023/12/06 05:07:57;;;;;;;;;;;;;;;6.28;100.00;94626.38;5073653;28;996;-65
2023/12/06 05:10:23;;;;;;;;;;;;;;;6.25;100.00;94619.53;5073166;28;1902;-64
2023/12/06 05:12:49;;;;;;;;;;;;;;;6.28;100.00;94621.91;5055429;28;1028;-64
2023/12/06 05:15:15;;;;;;;;;;;;;;;6.33;100.00;94624.09;5073166;28;1028;-60
2023/12/06 05:17:41;;;;;;;;;;;;;;;6.35;100.00;94619.47;5073174;28;1036;-61
2023/12/06 05:20:07;;;;;;;;;;;;;;;6.38;100.00;94629.81;5073503;28;996;-62
2023/12/06 05:22:36;;;;;;;;;;;;;;;6.34;100.00;94625.78;5073288;28;1012;-61
2023/12/06 05:25:03;;;;;;;;;;;;;;;6.23;100.00;94629.47;5073301;28;978;-62
2023/12/06 05:27:29;;;;;;;;;;;;;;;6.14;100.00;94630.34;5073006;28;1084;-62
2023/12/06 05:29:55;;;;;;;;;;;;;;;6.15;100.00;94622.25;5073120;28;1989;-62
2023/12/06 05:32:21;;;;;;;;;;;;;;;6.12;100.00;94627.00;5072912;28;1098;-63
2023/12/06 05:34:47;;;;;;;;;;;;;;;6.11;100.00;94627.97;5073013;28;1096;-63
2023/12/06 05:37:13;;;;;;;;;;;;;;;6.11;100.00;94627.97;5072859;28;1092;-63
2023/12/06 05:39:39;;;;;;;;;;;;;;;6.15;100.00;94626.72;5068126;28;1247;-63
2023/12/06 05:42:05;;;;;;;;;;;;;;;6.17;100.00;94620.28;5053034;28;979;-61
2023/12/06 05:44:31;;;;;;;;;;;;;;;6.17;100.00;94627.41;5052813;28;1112;-61
2023/12/06 05:46:57;;;;;;;;;;;;;;;6.16;100.00;94625.72;5052714;28;1021;-61
2023/12/06 05:49:23;;;;;;;;;;;;;;;6.13;100.00;94626.00;5035106;28;1037;-63
2023/12/06 05:51:49;;;;;;;;;;;;;;;6.08;100.00;94622.97;5053083;28;1906;-66
2023/12/06 05:54:15;;;;;;;;;;;;;;;6.11;100.00;94620.00;5056104;28;1333;-64
2023/12/06 05:56:41;;;;;;;;;;;;;;;6.20;100.00;94621.78;5057178;28;989;-61
2023/12/06 05:59:07;;;;;;;;;;;;;;;6.35;100.00;94620.31;5056865;28;1000;-60
2023/12/06 06:01:33;;;;;;;;;;;;;;;6.39;100.00;94624.38;5056560;28;976;-61
2023/12/06 06:03:59;;;;;;;;;;;;;;;6.32;100.00;94619.75;5056965;28;982;-62
2023/12/06 06:06:25;;;;;;;;;;;;;;;6.26;100.00;94623.88;5056826;28;1041;-62
2023/12/06 06:08:51;;;;;;;;;;;;;;;6.28;100.00;94627.22;5056789;28;1011;-61
2023/12/06 06:11:17;;;;;;;;;;;;;;;6.29;100.00;94628.03;5056706;28;1910;-62
2023/12/06 06:13:43;;;;;;;;;;;;;;;6.24;100.00;94625.81;5056821;28;984;-62
2023/12/06 06:16:14;;;;;;;;;;;;;;;6.26;100.00;94626.53;5056800;28;1056;-62
2023/12/06 06:18:40;;;;;;;;;;;;;;;6.27;100.00;94622.88;5056704;28;1056;-61
2023/12/06 06:21:06;;;;;;;;;;;;;;;6.29;100.00;94625.38;5056590;28;1062;-61
2023/12/06 06:23:32;;;;;;;;;;;;;;;6.31;100.00;94626.06;5056403;28;1050;-61
2023/12/06 06:25:59;;;;;;;;;;;;;;;6.37;100.00;94626.31;5056241;28;1035;-61
2023/12/06 06:28:24;;;;;;;;;;;;;;;6.44;100.00;94629.22;5056475;28;1081;-61
2023/12/06 06:30:50;;;;;;;;;;;;;;;6.44;100.00;94630.03;5056376;28;1919;-62
2023/12/06 06:33:16;;;;;;;;;;;;;;;6.43;100.00;94631.03;5056338;28;982;-62
2023/12/06 06:35:43;;;;;;;;;;;;;;;6.51;100.00;94632.97;5056394;28;964;-62
2023/12/06 06:38:09;;;;;;;;;;;;;;;6.52;100.00;94634.59;5059522;28;1180;-63
2023/12/06 06:40:35;;;;;;;;;;;;;;;6.50;100.00;94635.75;5076140;28;1049;-60
2023/12/06 06:43:01;;;;;;;;;;;;;;;6.58;100.00;94630.53;5076062;28;977;-62
2023/12/06 06:45:27;;;;;;;;;;;;;;;6.61;100.00;94633.72;5075777;28;974;-62
2023/12/06 06:47:54;;;;;;;;;;;;;;;6.56;100.00;94635.16;5076191;28;1321;-62
2023/12/06 06:50:20;;;;;;;;;;;;;;;6.58;100.00;94628.72;5075600;28;1909;-62
2023/12/06 06:52:46;;;;;;;;;;;;;;;6.61;100.00;94636.38;5076078;28;1069;-62
2023/12/06 06:55:12;;;;;;;;;;;;;;;6.57;100.00;94642.97;5075878;28;1312;-62
2023/12/06 06:57:38;;;;;;;;;;;;;;;6.49;100.00;94645.56;5074520;28;1104;-62
2023/12/06 07:00:06;;;;;;;;;;;;;;;6.46;100.00;94635.22;5075554;28;1114;-61
2023/12/06 07:02:32;;;;;;;;;;;;;;;6.52;100.00;94636.44;5075854;28;1018;-59
2023/12/06 07:05:00;;;;;;;;;;;;;;;6.54;100.00;94637.13;5074902;28;1086;-60
2023/12/06 07:07:26;;;;;;;;;;;;;;;6.54;100.00;94637.13;5075399;28;1152;-59
2023/12/06 07:09:52;;;;;;;;;;;;;;;6.50;100.00;94641.91;5075748;28;1906;-59
2023/12/06 07:12:20;;;;;;;;;;;;;;;6.50;100.00;94641.91;5146287;22;4100;-62
2023/12/06 07:14:46;;;;;;;;;;;;;;;6.40;100.00;94639.31;5036250;28;977;-59
2023/12/06 07:17:12;;;;;;;;;;;;;;;6.43;100.00;94644.31;5055462;28;1006;-59
2023/12/06 07:19:38;;;;;;;;;;;;;;;6.44;100.00;94637.19;5071098;28;986;-59
2023/12/06 07:22:06;;;;;;;;;;;;;;;6.45;100.00;94644.19;5055627;28;1062;-58
2023/12/06 07:24:32;;;;;;;;;;;;;;;6.45;100.00;94645.00;5055219;28;1144;-58
2023/12/06 07:26:58;;;;;;;;;;;;;;;6.56;100.00;94651.09;5037585;28;1057;-59
2023/12/06 07:29:24;;;;;;;;;;;;;;;6.54;100.00;94651.22;5055106;28;1108;-59
2023/12/06 07:31:50;;;;;;;;;;;;;;;6.63;100.00;94646.84;5055266;28;1918;-59
2023/12/06 07:34:17;;;;;;;;;;;;;;;6.67;100.00;94663.34;5054944;28;1204;-59
2023/12/06 07:36:44;;;;;;;;;;;;;;;6.62;100.00;94651.34;5055276;28;1033;-59
2023/12/06 07:39:11;;;;;;;;;;;;;;;6.55;100.00;94655.56;5037278;28;1034;-57
2023/12/06 07:41:37;;;;;;;;;;;;;;;6.70;100.00;94649.78;5054865;28;1041;-59
2023/12/06 07:44:03;;;;;;;;;;;;;;;6.74;100.00;94654.63;5054933;28;1048;-58
2023/12/06 07:46:29;;;;;;;;;;;;;;;6.69;100.00;94656.06;5055016;28;1069;-60
2023/12/06 07:48:55;;;;;;;;;;;;;;;6.72;100.00;94653.94;5055018;28;965;-60
2023/12/06 07:51:21;;;;;;;;;;;;;;;6.81;100.00;94655.69;5054567;28;2001;-60
2023/12/06 07:53:47;;;;;;;;;;;;;;;6.91;100.00;94649.47;5037035;28;1534;-61
2023/12/06 07:56:13;;;;;;;;;;;;;;;6.99;100.00;94657.53;5053463;28;1073;-61
2023/12/06 07:58:39;;;;;;;;;;;;;;;6.99;100.00;94652.22;5054455;28;1052;-60
2023/12/06 08:04:27;;;;;;;;;;;;;;;7.04;100.00;94664.06;5054765;28;825;-60
2023/12/06 08:06:53;;;;;;;;;;;;;;;6.93;100.00;94658.97;5054426;28;1072;-60
2023/12/06 08:09:20;;;;;;;;;;;;;;;6.83;100.00;94656.38;5052920;28;1033;-60
2023/12/06 08:11:46;;;;;;;;;;;;;;;6.90;100.00;94655.78;5054122;28;1914;-60
2023/12/06 08:14:13;;;;;;;;;;;;;;;6.99;100.00;94662.84;5073706;28;1246;-60
2023/12/06 08:16:39;;;;;;;;;;;;;;;7.04;100.00;94664.06;5073252;28;1217;-63
2023/12/06 08:19:05;;;;;;;;;;;;;;;7.03;100.00;94657.06;5073036;28;1115;-64
2023/12/06 08:21:31;;;;;;;;;;;;;;;7.00;100.00;94664.50;5074243;28;1030;-64
2023/12/06 08:23:57;;;;;;;;;;;;;;;7.15;100.00;94662.16;5074215;28;981;-63
2023/12/06 08:26:23;;;;;;;;;;;;;;;7.24;100.00;94664.72;5073935;28;1033;-63
2023/12/06 08:28:49;;;;;;;;;;;;;;;7.30;99.66;94657.13;5074216;28;1045;-63
2023/12/06 08:31:15;;;;;;;;;;;;;;;7.17;99.08;94655.72;5073916;28;2109;-63
2023/12/06 08:33:41;;;;;;;;;;;;;;;7.14;100.00;94660.50;5072545;28;1041;-64
2023/12/06 08:36:07;;;;;;;;;;;;;;;7.27;100.00;94657.47;5072529;28;1223;-63
2023/12/06 08:38:34;;;;;;;;;;;;;;;7.20;100.00;94659.88;5073645;28;1046;-64
2023/12/06 08:41:00;;;;;;;;;;;;;;;7.33;98.72;94659.50;5072753;28;977;-64
2023/12/06 08:43:26;;;;;;;;;;;;;;;7.20;99.55;94666.03;5073462;28;1068;-64
2023/12/06 08:45:51;;;;;;;;;;;;;;;7.17;100.00;94662.84;5073710;28;1017;-65
2023/12/06 08:48:17;;;;;;;;;;;;;;;7.18;99.09;94670.66;5055883;28;1056;-65
2023/12/06 08:50:43;;;;;;;;;;;;;;;7.11;99.91;94656.31;5073567;28;2023;-66
2023/12/06 08:53:09;;;;;;;;;;;;;;;7.25;99.61;94660.28;5073343;28;1057;-66
2023/12/06 08:55:35;;;;;;;;;;;;;;;7.39;99.18;94661.53;5055889;28;1249;-65
2023/12/06 08:58:01;;;;;;;;;;;;;;;7.32;98.53;94664.00;5053744;28;1046;-65
2023/12/06 09:00:27;;;;;;;;;;;;;;;7.29;98.99;94647.50;5053582;28;1005;-65
2023/12/06 09:02:53;;;;;;;;;;;;;;;7.32;99.58;94642.72;5053493;28;1053;-65
2023/12/06 09:05:19;;;;;;;;;;;;;;;7.26;99.58;94642.47;5052101;28;1156;-65
2023/12/06 09:07:45;;;;;;;;;;;;;;;7.36;98.93;94638.75;5053174;28;1201;-65
2023/12/06 09:10:11;;;;;;;;;;;;;;;7.36;98.56;94646.75;5053396;28;1914;-65
2023/12/06 09:12:37;;;;;;;;;;;;;;;7.54;98.06;94646.69;5055280;28;1228;-63
2023/12/06 09:15:04;;;;;;;;;;;;;;;7.73;97.76;94647.50;5073431;28;1049;-65
2023/12/06 09:17:30;;;;;;;;;;;;;;;7.69;97.93;94638.16;5055443;28;1194;-63
2023/12/06 09:19:57;;;;;;;;;;;;;;;7.81;97.80;94632.41;5073285;28;1073;-60
2023/12/06 09:22:22;;;;;;;;;;;;;;;7.86;95.29;94629.28;5073344;28;1053;-59
2023/12/06 09:24:49;;;;;;;;;;;;;;;7.80;96.16;94627.25;5068801;28;1053;-59
2023/12/06 09:27:18;;;;;;;;;;;;;;;7.71;97.13;94625.53;5059909;28;1045;-60
2023/12/06 09:29:47;;;;;;;;;;;;;;;7.72;98.11;94627.19;5073113;28;1981;-60
2023/12/06 09:32:13;;;;;;;;;;;;;;;7.90;98.75;94621.84;5072927;28;1037;-60
2023/12/06 09:34:39;;;;;;;;;;;;;;;7.96;98.04;94624.69;5068785;28;1234;-60
2023/12/06 09:37:09;;;;;;;;;;;;;;;7.99;97.54;94613.72;5067044;28;1026;-60
2023/12/06 09:39:35;;;;;;;;;;;;;;;7.96;96.31;94622.00;5073276;28;981;-59
2023/12/06 09:42:02;;;;;;;;;;;;;;;7.87;97.12;94614.97;5073216;28;993;-60
2023/12/06 09:44:28;;;;;;;;;;;;;;;7.91;98.89;94608.38;5072871;28;1038;-60
2023/12/06 09:46:54;;;;;;;;;;;;;;;7.91;98.82;94602.19;5072892;28;1120;-60
2023/12/06 09:49:20;;;;;;;;;;;;;;;7.93;99.92;94603.72;5072800;28;1009;-60
2023/12/06 09:51:46;;;;;;;;;;;;;;;7.97;99.43;94599.75;5072804;28;1906;-60
2023/12/06 09:54:12;;;;;;;;;;;;;;;8.05;99.16;94606.94;5072650;28;1374;-60
2023/12/06 09:56:38;;;;;;;;;;;;;;;8.06;99.74;94602.44;5072770;28;1040;-60
2023/12/06 09:59:04;;;;;;;;;;;;;;;8.13;99.08;94612.28;5072733;28;1053;-60
2023/12/06 10:01:30;;;;;;;;;;;;;;;8.08;98.99;94600.44;5072726;28;1111;-60
2023/12/06 10:03:56;;;;;;;;;;;;;;;7.93;100.00;94594.88;5072754;28;981;-60
2023/12/06 10:06:22;;;;;;;;;;;;;;;7.80;100.00;94592.66;5071700;28;977;-59
2023/12/06 10:08:51;;;;;;;;;;;;;;;7.62;100.00;94588.22;5071373;28;1022;-60
2023/12/06 10:11:21;;;;;;;;;;;;;;;7.58;100.00;94589.53;5072498;28;1987;-59
2023/12/06 10:13:47;;;;;;;;;;;;;;;7.73;100.00;94591.63;5072514;28;1259;-59
2023/12/06 10:16:14;;;;;;;;;;;;;;;7.75;100.00;94592.28;5072818;28;1054;-59
2023/12/06 10:18:40;;;;;;;;;;;;;;;7.71;100.00;94583.78;5072556;28;1076;-60
2023/12/06 10:21:07;;;;;;;;;;;;;;;7.82;100.00;94590.69;5073125;28;1206;-64
2023/12/06 10:23:33;;;;;;;;;;;;;;;7.94;99.81;94585.91;5054729;28;1034;-63
2023/12/06 10:25:59;;;;;;;;;;;;;;;7.92;100.00;94585.25;5072640;28;990;-63
2023/12/06 10:28:25;;;;;;;;;;;;;;;7.89;99.75;94586.41;5071501;28;976;-62
2023/12/06 10:31:01;;;;;;;;;;;;;;;7.65;100.00;94571.13;5072711;28;1914;-61
2023/12/06 10:33:28;;;;;;;;;;;;;;;7.62;100.00;94574.91;5072613;28;962;-61
2023/12/06 10:35:55;;;;;;;;;;;;;;;7.74;100.00;94569.31;5072739;28;1072;-61
2023/12/06 10:38:21;;;;;;;;;;;;;;;7.85;100.00;94570.88;5072219;28;1044;-61
2023/12/06 10:40:47;;;;;;;;;;;;;;;7.74;100.00;94570.19;5074506;28;915;-62
2023/12/06 10:43:13;;;;;;;;;;;;;;;7.71;100.00;94572.31;5075981;28;1193;-64
2023/12/06 10:45:40;;;;;;;;;;;;;;;7.84;100.00;94570.06;5075918;28;974;-64
2023/12/06 10:48:08;;;;;;;;;;;;;;;7.87;100.00;94569.72;5075899;28;1017;-59
2023/12/06 10:50:34;;;;;;;;;;;;;;;7.95;100.00;94564.47;5075715;28;1910;-63
2023/12/06 10:53:03;;;;;;;;;;;;;;;8.01;100.00;94569.13;5075775;28;1033;-64
2023/12/06 10:55:32;;;;;;;;;;;;;;;8.07;100.00;94566.84;5075919;28;1269;-64
2023/12/06 10:58:00;;;;;;;;;;;;;;;8.02;100.00;94562.84;5076017;28;1045;-64
2023/12/06 11:00:26;;;;;;;;;;;;;;;8.05;100.00;94563.50;5075605;28;1037;-64
2023/12/06 11:02:56;;;;;;;;;;;;;;;7.98;100.00;94564.13;5075827;28;984;-63
2023/12/06 11:05:24;;;;;;;;;;;;;;;7.97;100.00;94565.13;5075624;28;989;-62
2023/12/06 11:08:02;;;;;;;;;;;;;;;8.00;100.00;94567.47;5075861;28;1085;-63
2023/12/06 11:10:40;;;;;;;;;;;;;;;8.08;100.00;94565.84;5057809;28;1991;-63
2023/12/06 11:13:13;;;;;;;;;;;;;;;8.22;100.00;94565.22;5075243;28;1098;-62
2023/12/06 11:15:39;;;;;;;;;;;;;;;8.33;100.00;94559.63;5075769;28;966;-63
2023/12/06 11:18:16;;;;;;;;;;;;;;;8.28;100.00;94559.25;5075532;28;1095;-63
2023/12/06 11:20:43;;;;;;;;;;;;;;;8.13;100.00;94563.53;5075685;28;1235;-63
2023/12/06 11:23:09;;;;;;;;;;;;;;;8.01;100.00;94560.31;5075248;28;1245;-63
2023/12/06 11:25:45;;;;;;;;;;;;;;;8.04;100.00;94560.00;5075192;28;1036;-63
2023/12/06 11:28:12;;;;;;;;;;;;;;;8.13;100.00;94555.53;5075135;28;1084;-63
2023/12/06 11:30:45;;;;;;;;;;;;;;;8.09;100.00;94551.53;5075326;28;1989;-63
2023/12/06 11:33:12;;;;;;;;;;;;;;;8.14;100.00;94554.56;5075314;28;1018;-63
2023/12/06 11:35:51;;;;;;;;;;;;;;;8.22;100.00;94554.59;5075310;28;1041;-63
2023/12/06 11:38:17;;;;;;;;;;;;;;;8.23;100.00;94545.59;5074803;28;1025;-63
2023/12/06 11:40:52;;;;;;;;;;;;;;;8.28;100.00;94545.13;5057519;28;970;-60
2023/12/06 11:43:38;;;;;;;;;;;;;;;8.34;100.00;94542.63;5075046;28;1008;-65
2023/12/06 11:46:07;;;;;;;;;;;;;;;8.36;100.00;94540.63;5074860;28;986;-63
2023/12/06 11:48:38;;;;;;;;;;;;;;;8.21;100.00;94547.56;5074669;28;1029;-63
2023/12/06 11:51:05;;;;;;;;;;;;;;;8.09;100.00;94551.53;5056903;28;1991;-63
2023/12/06 11:53:31;;;;;;;;;;;;;;;8.23;100.00;94544.75;5074687;28;1253;-63
2023/12/06 11:55:57;;;;;;;;;;;;;;;8.42;100.00;94533.03;5074708;28;1020;-63
2023/12/06 11:58:30;;;;;;;;;;;;;;;8.23;100.00;94532.25;5074769;28;965;-63
2023/12/06 12:00:57;;;;;;;;;;;;;;;8.24;100.00;94531.28;5073547;28;1051;-62
2023/12/06 12:03:24;;;;;;;;;;;;;;;8.29;100.00;94526.31;5074361;28;1034;-63
2023/12/06 12:05:50;;;;;;;;;;;;;;;8.30;100.00;94521.81;5074695;28;977;-63
2023/12/06 12:08:17;;;;;;;;;;;;;;;8.37;100.00;94531.66;5074538;28;1044;-63
2023/12/06 12:10:43;;;;;;;;;;;;;;;8.40;100.00;94528.69;5074386;28;1910;-62
2023/12/06 12:13:18;;;;;;;;;;;;;;;8.51;100.00;94532.88;5056253;28;1113;-63
2023/12/06 12:15:51;;;;;;;;;;;;;;;8.62;100.00;94523.75;5074515;28;1032;-63
2023/12/06 12:18:17;;;;;;;;;;;;;;;8.59;100.00;94529.38;5074221;28;957;-64
2023/12/06 12:20:43;;;;;;;;;;;;;;;8.59;100.00;94526.72;5074189;28;1044;-63
2023/12/06 12:23:10;;;;;;;;;;;;;;;8.36;100.00;94524.66;5056549;28;974;-64
2023/12/06 12:25:36;;;;;;;;;;;;;;;8.38;100.00;94527.16;5056351;28;1044;-64
2023/12/06 12:28:02;;;;;;;;;;;;;;;8.38;98.90;94521.81;5056618;28;1045;-63
2023/12/06 12:30:34;;;;;;;;;;;;;;;8.46;98.23;94523.69;5073794;28;1991;-64
2023/12/06 12:33:00;;;;;;;;;;;;;;;8.43;99.51;94526.72;5073973;28;1095;-62
2023/12/06 12:35:26;;;;;;;;;;;;;;;8.27;100.00;94525.66;5072779;28;1043;-63
2023/12/06 12:37:52;;;;;;;;;;;;;;;8.25;100.00;94522.28;5073929;28;984;-64
2023/12/06 12:40:19;;;;;;;;;;;;;;;8.43;100.00;94529.38;5073686;28;1033;-63
2023/12/06 12:42:45;;;;;;;;;;;;;;;8.44;100.00;94531.03;5073723;28;1065;-62
2023/12/06 12:45:17;;;;;;;;;;;;;;;8.39;97.99;94520.84;5073853;28;996;-61
2023/12/06 12:47:43;;;;;;;;;;;;;;;8.40;99.54;94518.03;5073558;28;1068;-63
2023/12/06 12:50:10;;;;;;;;;;;;;;;8.34;100.00;94526.63;5073428;28;1902;-63
2023/12/06 12:52:38;;;;;;;;;;;;;;;8.30;100.00;94517.31;5072926;28;1046;-63
2023/12/06 12:55:05;;;;;;;;;;;;;;;8.33;100.00;94524.16;5073547;28;1249;-63
2023/12/06 12:57:41;;;;;;;;;;;;;;;8.26;100.00;94525.81;5073347;28;1041;-63
2023/12/06 13:00:17;;;;;;;;;;;;;;;8.20;100.00;94524.63;5073733;28;953;-63